createdAt,value
2023-04-07T00:00:55.131Z,23.12
2023-04-07T00:03:23.572Z,22.42
2023-04-07T00:05:51.167Z,22.52
2023-04-07T00:08:18.586Z,24.27
2023-04-07T00:10:46.910Z,23.80
2023-04-07T00:13:14.370Z,27.90
2023-04-07T00:15:41.789Z,21.60
2023-04-07T00:18:09.592Z,22.77
2023-04-07T00:20:37.099Z,24.00
2023-04-07T00:23:04.540Z,21.60
2023-04-07T00:25:32.229Z,23.65
2023-04-07T00:27:59.630Z,21.27
2023-04-07T00:30:27.120Z,21.62
2023-04-07T00:32:54.856Z,24.05
2023-04-07T00:35:22.518Z,23.25
2023-04-07T00:37:49.946Z,26.40
2023-04-07T00:40:17.637Z,24.45
2023-04-07T00:42:45.061Z,22.52
2023-04-07T00:45:13.178Z,22.65
2023-04-07T00:47:41.196Z,24.35
2023-04-07T00:50:09.047Z,22.77
2023-04-07T00:52:36.645Z,23.85
2023-04-07T00:55:04.559Z,21.37
2023-04-07T00:57:32.246Z,24.27
2023-04-07T01:00:00.000Z,25.70
2023-04-07T01:02:42.835Z,22.67
2023-04-07T01:05:26.363Z,25.95
2023-04-07T01:08:00.769Z,23.27
2023-04-07T01:10:41.727Z,24.40
2023-04-07T01:16:01.506Z,22.48
2023-04-07T01:18:33.545Z,22.83
2023-04-07T01:21:05.026Z,24.02
2023-04-07T01:23:53.263Z,22.00
2023-04-07T01:26:29.884Z,22.33
2023-04-07T01:29:25.528Z,25.12
2023-04-07T01:31:55.814Z,22.52
2023-04-07T01:34:26.396Z,21.05
2023-04-07T01:36:56.054Z,22.35
2023-04-07T01:39:24.403Z,23.52
2023-04-07T01:41:53.116Z,25.80
2023-04-07T01:44:21.037Z,19.45
2023-04-07T01:46:51.205Z,23.45
2023-04-07T01:49:19.453Z,19.87
2023-04-07T01:51:50.611Z,22.45
2023-04-07T01:54:18.649Z,21.10
2023-04-07T01:56:46.413Z,25.83
2023-04-07T01:59:13.933Z,20.33
2023-04-07T02:01:42.737Z,20.92
2023-04-07T02:04:10.533Z,20.25
2023-04-07T02:07:06.391Z,21.60
2023-04-07T02:09:39.032Z,21.15
2023-04-07T02:12:08.522Z,26.90
2023-04-07T02:14:37.067Z,21.95
2023-04-07T02:17:05.862Z,20.95
2023-04-07T02:19:35.919Z,21.45
2023-04-07T02:22:05.496Z,19.33
2023-04-07T02:24:32.917Z,22.25
2023-04-07T02:27:03.826Z,21.50
2023-04-07T02:29:31.501Z,21.17
2023-04-07T02:31:58.892Z,21.77
2023-04-07T02:34:29.714Z,19.12
2023-04-07T02:36:57.444Z,20.70
2023-04-07T02:39:24.831Z,20.83
2023-04-07T02:41:52.221Z,22.08
2023-04-07T02:44:19.868Z,19.83
2023-04-07T02:46:47.289Z,21.30
2023-04-07T02:49:14.650Z,23.00
2023-04-07T02:51:42.601Z,23.02
2023-04-07T02:54:09.988Z,20.92
2023-04-07T02:56:37.460Z,20.75
2023-04-07T02:59:05.245Z,23.08
2023-04-07T03:01:34.939Z,22.15
2023-04-07T03:04:03.123Z,21.15
2023-04-07T03:06:31.568Z,22.85
2023-04-07T03:08:59.437Z,22.73
2023-04-07T03:11:27.183Z,21.42
2023-04-07T03:13:55.438Z,20.90
2023-04-07T03:16:23.113Z,23.62
2023-04-07T03:18:52.969Z,22.92
2023-04-07T03:21:21.573Z,23.85
2023-04-07T03:23:49.069Z,21.55
2023-04-07T03:26:16.626Z,23.60
2023-04-07T03:28:44.330Z,23.27
2023-04-07T03:31:12.229Z,21.92
2023-04-07T03:33:39.622Z,23.75
2023-04-07T03:36:08.838Z,20.55
2023-04-07T03:38:36.292Z,23.25
2023-04-07T03:41:04.394Z,25.37
2023-04-07T03:43:32.196Z,22.83
2023-04-07T03:46:02.090Z,20.35
2023-04-07T03:48:29.608Z,22.52
2023-04-07T03:50:57.690Z,23.27
2023-04-07T03:53:25.628Z,26.02
2023-04-07T03:55:53.439Z,20.83
2023-04-07T03:58:21.470Z,23.55
2023-04-07T04:00:49.159Z,24.05
2023-04-07T04:03:17.258Z,21.20
2023-04-07T04:05:45.433Z,22.87
2023-04-07T04:08:15.690Z,24.33
2023-04-07T04:10:43.568Z,23.98
2023-04-07T04:13:11.054Z,23.40
2023-04-07T04:15:38.952Z,21.77
2023-04-07T04:18:07.557Z,23.38
2023-04-07T04:20:34.991Z,22.83
2023-04-07T04:23:03.498Z,22.60
2023-04-07T04:25:31.239Z,25.35
2023-04-07T04:27:59.160Z,24.85
2023-04-07T04:30:26.940Z,23.70
2023-04-07T04:32:55.499Z,24.87
2023-04-07T04:35:23.245Z,23.42
2023-04-07T04:37:51.545Z,24.50
2023-04-07T04:40:19.343Z,23.20
2023-04-07T04:42:47.664Z,24.52
2023-04-07T04:45:16.201Z,24.67
2023-04-07T04:47:45.724Z,22.10
2023-04-07T04:50:13.278Z,25.58
2023-04-07T04:52:41.051Z,22.48
2023-04-07T04:55:10.532Z,22.08
2023-04-07T04:57:38.463Z,25.77
2023-04-07T05:00:08.031Z,22.73
2023-04-07T05:02:37.119Z,22.42
2023-04-07T05:05:07.085Z,24.83
2023-04-07T05:07:34.913Z,24.90
2023-04-07T05:10:02.750Z,22.20
2023-04-07T05:12:31.297Z,25.00
2023-04-07T05:14:59.172Z,25.15
2023-04-07T05:17:27.009Z,23.33
2023-04-07T05:19:54.757Z,23.05
2023-04-07T05:22:23.048Z,22.73
2023-04-07T05:24:51.379Z,25.60
2023-04-07T05:27:18.861Z,23.67
2023-04-07T05:29:46.528Z,30.67
2023-04-07T05:32:14.816Z,69.37
2023-04-07T05:34:42.264Z,53.38
2023-04-07T05:37:10.974Z,56.50
2023-04-07T05:39:38.765Z,58.72
2023-04-07T05:42:06.292Z,31.77
2023-04-07T05:44:34.805Z,27.17
2023-04-07T05:47:05.824Z,26.05
2023-04-07T05:49:33.398Z,26.35
2023-04-07T05:52:01.136Z,27.98
2023-04-07T05:54:29.630Z,26.62
2023-04-07T05:56:57.832Z,27.45
2023-04-07T05:59:25.513Z,27.10
2023-04-07T06:01:53.349Z,27.40
2023-04-07T06:04:21.537Z,26.60
2023-04-07T06:06:49.742Z,28.95
2023-04-07T06:09:19.012Z,26.52
2023-04-07T06:11:47.238Z,25.60
2023-04-07T06:14:16.931Z,27.23
2023-04-07T06:16:44.924Z,26.77
2023-04-07T06:19:12.580Z,27.00
2023-04-07T06:21:40.096Z,24.87
2023-04-07T06:24:07.918Z,26.67
2023-04-07T06:26:36.328Z,26.20
2023-04-07T06:29:03.756Z,26.67
2023-04-07T06:31:31.521Z,27.73
2023-04-07T06:33:59.282Z,31.00
2023-04-07T06:36:27.638Z,27.17
2023-04-07T06:38:55.523Z,27.40
2023-04-07T06:41:23.190Z,27.27
2023-04-07T06:43:53.628Z,31.62
2023-04-07T06:46:21.281Z,29.02
2023-04-07T06:48:49.097Z,31.08
2023-04-07T06:51:16.554Z,25.42
2023-04-07T06:53:44.362Z,28.95
2023-04-07T06:56:12.244Z,24.85
2023-04-07T06:58:39.960Z,27.23
2023-04-07T07:01:07.366Z,26.77
2023-04-07T07:03:35.318Z,27.35
2023-04-07T07:06:02.933Z,27.08
2023-04-07T07:08:30.874Z,26.10
2023-04-07T07:10:58.612Z,27.27
2023-04-07T07:13:26.878Z,29.85
2023-04-07T07:15:54.538Z,27.92
2023-04-07T07:18:22.325Z,24.60
2023-04-07T07:20:50.684Z,23.73
2023-04-07T07:23:18.206Z,23.83
2023-04-07T07:25:45.936Z,26.83
2023-04-07T07:28:13.346Z,25.45
2023-04-07T07:30:41.686Z,29.77
2023-04-07T07:33:09.502Z,27.08
2023-04-07T07:35:37.966Z,25.90
2023-04-07T07:38:05.804Z,24.63
2023-04-07T07:40:33.968Z,26.27
2023-04-07T07:43:01.344Z,27.92
2023-04-07T07:45:28.737Z,26.67
2023-04-07T07:47:56.514Z,25.05
2023-04-07T07:50:24.026Z,25.10
2023-04-07T07:52:51.495Z,25.88
2023-04-07T07:55:19.330Z,26.92
2023-04-07T07:57:46.789Z,28.12
2023-04-07T08:00:14.422Z,22.33
2023-04-07T08:02:42.263Z,22.52
2023-04-07T08:05:09.991Z,23.17
2023-04-07T08:07:37.662Z,20.80
2023-04-07T08:10:05.936Z,20.70
2023-04-07T08:12:33.354Z,24.37
2023-04-07T08:15:00.857Z,20.80
2023-04-07T08:17:28.656Z,22.77
2023-04-07T08:19:56.228Z,21.77
2023-04-07T08:22:23.623Z,21.62
2023-04-07T08:24:51.323Z,21.40
2023-04-07T08:27:18.808Z,24.60
2023-04-07T08:29:46.247Z,23.10
2023-04-07T08:32:14.033Z,23.73
2023-04-07T08:34:41.740Z,23.25
2023-04-07T08:37:09.637Z,23.38
2023-04-07T08:39:37.332Z,23.87
2023-04-07T08:42:04.826Z,25.77
2023-04-07T08:44:32.657Z,22.20
2023-04-07T08:47:01.708Z,26.23
2023-04-07T08:49:30.168Z,24.75
2023-04-07T08:52:00.579Z,28.48
2023-04-07T08:54:28.556Z,24.90
2023-04-07T08:56:56.156Z,24.60
2023-04-07T08:59:26.938Z,27.17
2023-04-07T09:01:55.322Z,27.95
2023-04-07T09:04:24.658Z,27.00
2023-04-07T09:06:52.037Z,27.73
2023-04-07T09:09:19.750Z,28.30
2023-04-07T09:11:48.494Z,27.62
2023-04-07T09:14:16.414Z,28.65
2023-04-07T09:16:44.231Z,29.20
2023-04-07T09:19:11.776Z,27.87
2023-04-07T09:21:50.264Z,27.42
2023-04-07T09:24:23.247Z,33.70
2023-04-07T09:26:50.892Z,27.58
2023-04-07T09:29:20.019Z,29.77
2023-04-07T09:31:55.463Z,25.42
2023-04-07T09:34:24.925Z,28.92
2023-04-07T09:36:52.476Z,25.23
2023-04-07T09:39:20.734Z,27.87
2023-04-07T09:41:48.417Z,25.40
2023-04-07T09:44:16.051Z,24.58
2023-04-07T09:46:57.447Z,25.48
2023-04-07T09:49:26.005Z,23.55
2023-04-07T09:51:54.287Z,27.15
2023-04-07T09:54:42.102Z,24.55
2023-04-07T09:57:11.304Z,23.45
2023-04-07T09:59:42.541Z,24.90
2023-04-07T10:02:13.317Z,23.23
2023-04-07T10:04:41.534Z,24.77
2023-04-07T10:07:08.992Z,22.58
2023-04-07T10:09:36.562Z,25.10
2023-04-07T10:12:05.147Z,24.35
2023-04-07T10:14:32.904Z,24.12
2023-04-07T10:17:01.657Z,24.33
2023-04-07T10:19:35.943Z,23.85
2023-04-07T10:22:05.514Z,22.75
2023-04-07T10:24:55.290Z,25.27
2023-04-07T10:27:56.667Z,22.20
2023-04-07T10:30:30.504Z,25.60
2023-04-07T10:32:58.955Z,22.80
2023-04-07T10:35:26.997Z,23.38
2023-04-07T10:38:14.282Z,22.83
2023-04-07T10:40:43.064Z,23.40
2023-04-07T10:43:15.004Z,21.52
2023-04-07T10:45:48.616Z,23.05
2023-04-07T10:48:17.157Z,21.87
2023-04-07T10:50:45.834Z,21.55
2023-04-07T10:53:15.133Z,20.30
2023-04-07T10:55:44.597Z,21.95
2023-04-07T10:58:33.829Z,22.42
2023-04-07T11:01:01.415Z,22.08
2023-04-07T11:03:30.779Z,22.40
2023-04-07T11:06:06.302Z,22.13
2023-04-07T11:08:37.929Z,20.65
2023-04-07T11:11:09.595Z,23.42
2023-04-07T11:13:41.751Z,21.12
2023-04-07T11:16:09.541Z,21.40
2023-04-07T11:18:37.753Z,18.40
2023-04-07T11:21:06.828Z,18.12
2023-04-07T11:23:39.121Z,19.23
2023-04-07T11:26:07.490Z,19.83
2023-04-07T11:28:34.974Z,19.40
2023-04-07T11:31:02.496Z,17.17
2023-04-07T11:33:32.177Z,19.83
2023-04-07T11:36:00.993Z,20.92
2023-04-07T11:38:30.626Z,24.17
2023-04-07T11:41:11.046Z,19.80
2023-04-07T11:43:39.922Z,22.35
2023-04-07T11:46:09.640Z,22.77
2023-04-07T11:48:39.000Z,21.77
2023-04-07T11:51:07.032Z,20.00
2023-04-07T11:53:38.083Z,21.05
2023-04-07T11:56:12.538Z,19.67
2023-04-07T11:58:47.141Z,19.25
2023-04-07T12:01:14.647Z,20.33
2023-04-07T12:04:02.923Z,21.58
2023-04-07T12:06:38.371Z,21.50
2023-04-07T12:09:06.366Z,24.12
2023-04-07T12:11:35.902Z,20.95
2023-04-07T12:14:05.248Z,23.35
2023-04-07T12:16:38.366Z,22.35
2023-04-07T12:19:05.780Z,23.00
2023-04-07T12:21:33.437Z,24.55
2023-04-07T12:24:01.178Z,21.70
2023-04-07T12:26:28.907Z,21.70
2023-04-07T12:28:58.838Z,21.85
2023-04-07T12:31:26.248Z,23.77
2023-04-07T12:33:53.681Z,25.98
2023-04-07T12:36:21.427Z,22.45
2023-04-07T12:38:48.923Z,23.40
2023-04-07T12:41:16.312Z,22.20
2023-04-07T12:43:45.046Z,21.02
2023-04-07T12:46:14.481Z,22.92
2023-04-07T12:48:41.977Z,25.52
2023-04-07T12:51:09.770Z,23.80
2023-04-07T12:53:37.391Z,23.77
2023-04-07T12:56:04.958Z,21.45
2023-04-07T12:58:33.222Z,25.17
2023-04-07T13:01:00.936Z,26.75
2023-04-07T13:03:28.544Z,22.65
2023-04-07T13:05:56.400Z,24.83
2023-04-07T13:08:23.778Z,23.60
2023-04-07T13:10:51.194Z,25.08
2023-04-07T13:13:18.874Z,25.17
2023-04-07T13:15:46.502Z,21.42
2023-04-07T13:18:13.915Z,19.98
2023-04-07T13:20:41.629Z,19.33
2023-04-07T13:23:10.264Z,19.00
2023-04-07T13:25:37.918Z,19.15
2023-04-07T13:28:05.947Z,20.90
2023-04-07T13:30:33.784Z,20.80
2023-04-07T13:33:01.490Z,21.58
2023-04-07T13:35:31.008Z,22.77
2023-04-07T13:37:58.487Z,18.98
2023-04-07T13:40:26.110Z,21.83
2023-04-07T13:42:53.738Z,20.42
2023-04-07T13:45:21.167Z,19.85
2023-04-07T13:47:48.671Z,22.37
2023-04-07T13:50:16.389Z,19.80
2023-04-07T13:52:43.845Z,20.95
2023-04-07T13:55:11.289Z,20.05
2023-04-07T13:57:38.972Z,19.48
2023-04-07T14:00:07.539Z,19.20
2023-04-07T14:02:36.385Z,22.08
2023-04-07T14:05:04.419Z,19.27
2023-04-07T14:07:31.866Z,21.15
2023-04-07T14:09:59.499Z,17.35
2023-04-07T14:12:27.343Z,16.80
2023-04-07T14:14:54.919Z,21.95
2023-04-07T14:17:22.699Z,24.05
2023-04-07T14:19:50.700Z,21.62
2023-04-07T14:22:18.310Z,23.60
2023-04-07T14:24:46.273Z,22.85
2023-04-07T14:27:16.673Z,23.75
2023-04-07T14:29:44.022Z,25.65
2023-04-07T14:32:11.636Z,22.27
2023-04-07T14:34:39.422Z,22.77
2023-04-07T14:37:07.325Z,23.48
2023-04-07T14:39:35.606Z,23.45
2023-04-07T14:42:04.364Z,24.10
2023-04-07T14:44:33.103Z,23.10
2023-04-07T14:47:00.483Z,35.50
2023-04-07T14:49:28.894Z,46.00
2023-04-07T14:51:56.352Z,28.80
2023-04-07T14:54:24.432Z,25.23
2023-04-07T14:56:52.090Z,25.08
2023-04-07T14:59:19.685Z,25.15
2023-04-07T15:01:47.406Z,28.27
2023-04-07T15:04:15.217Z,25.67
2023-04-07T15:06:43.271Z,24.50
2023-04-07T15:09:10.725Z,25.60
2023-04-07T15:11:38.397Z,27.40
2023-04-07T15:14:06.673Z,26.45
2023-04-07T15:16:34.166Z,26.25
2023-04-07T15:19:01.981Z,26.45
2023-04-07T15:21:29.386Z,27.52
2023-04-07T15:23:56.814Z,29.40
2023-04-07T15:26:24.768Z,26.95
2023-04-07T15:28:52.428Z,27.23
2023-04-07T15:31:21.463Z,28.58
2023-04-07T15:33:49.648Z,30.62
2023-04-07T15:36:17.306Z,28.20
2023-04-07T15:38:45.094Z,31.45
2023-04-07T15:41:16.672Z,32.45
2023-04-07T15:43:44.109Z,20.77
2023-04-07T15:46:12.176Z,33.17
2023-04-07T15:48:39.932Z,33.58
2023-04-07T15:51:07.405Z,31.55
2023-04-07T15:53:34.948Z,33.45
2023-04-07T15:56:02.714Z,30.50
2023-04-07T15:58:31.535Z,31.25
2023-04-07T16:00:59.926Z,31.45
2023-04-07T16:03:29.017Z,33.08
2023-04-07T16:05:56.681Z,34.45
2023-04-07T16:08:24.591Z,29.58
2023-04-07T16:10:52.229Z,28.70
2023-04-07T16:13:19.597Z,27.08
2023-04-07T16:15:46.933Z,30.35
2023-04-07T16:18:14.627Z,33.00
2023-04-07T16:20:42.077Z,36.42
2023-04-07T16:23:09.673Z,36.10
2023-04-07T16:25:37.419Z,35.55
2023-04-07T16:28:04.862Z,32.20
2023-04-07T16:30:32.278Z,32.75
2023-04-07T16:33:00.530Z,35.45
2023-04-07T16:35:30.171Z,36.38
2023-04-07T16:38:01.644Z,30.45
2023-04-07T16:40:29.427Z,32.05
2023-04-07T16:42:56.838Z,32.33
2023-04-07T16:45:24.303Z,31.75
2023-04-07T16:47:52.022Z,36.97
2023-04-07T16:50:19.439Z,32.28
2023-04-07T16:52:47.700Z,34.55
2023-04-07T16:55:15.430Z,38.72
2023-04-07T16:57:42.804Z,33.90
2023-04-07T17:00:10.720Z,36.70
2023-04-07T17:02:38.466Z,32.97
2023-04-07T17:05:06.370Z,34.30
2023-04-07T17:07:33.870Z,34.80
2023-04-07T17:10:01.597Z,33.42
2023-04-07T17:12:28.997Z,33.03
2023-04-07T17:14:56.410Z,31.55
2023-04-07T17:17:24.054Z,33.22
2023-04-07T17:19:51.771Z,36.88
2023-04-07T17:22:19.253Z,33.00
2023-04-07T17:24:47.112Z,36.33
2023-04-07T17:27:14.608Z,37.50
2023-04-07T17:29:42.013Z,33.63
2023-04-07T17:32:09.705Z,37.33
2023-04-07T17:34:37.158Z,38.63
2023-04-07T17:37:04.576Z,48.97
2023-04-07T17:39:32.299Z,48.75
2023-04-07T17:41:59.706Z,40.67
2023-04-07T17:44:27.350Z,38.75
2023-04-07T17:46:55.266Z,38.83
2023-04-07T17:49:22.794Z,42.97
2023-04-07T17:51:50.449Z,53.20
2023-04-07T17:54:18.227Z,53.58
2023-04-07T17:56:46.120Z,47.10
2023-04-07T17:59:13.476Z,50.90
2023-04-07T18:01:41.276Z,54.08
2023-04-07T18:04:09.176Z,69.95
2023-04-07T18:06:37.023Z,61.28
2023-04-07T18:09:04.812Z,56.08
2023-04-07T18:11:32.846Z,45.67
2023-04-07T18:14:00.526Z,41.72
2023-04-07T18:16:28.157Z,41.10
2023-04-07T18:18:56.862Z,39.70
2023-04-07T18:21:24.273Z,48.72
2023-04-07T18:23:51.885Z,45.05
2023-04-07T18:26:19.540Z,40.33
2023-04-07T18:28:46.955Z,41.67
2023-04-07T18:31:15.384Z,37.08
2023-04-07T18:33:43.370Z,37.17
2023-04-07T18:36:11.759Z,34.95
2023-04-07T18:38:39.264Z,33.53
2023-04-07T18:41:07.268Z,32.85
2023-04-07T18:43:35.012Z,33.33
2023-04-07T18:46:02.425Z,30.12
2023-04-07T18:48:30.218Z,33.95
2023-04-07T18:50:57.648Z,33.58
2023-04-07T18:53:25.449Z,32.35
2023-04-07T18:55:53.114Z,34.72
2023-04-07T18:58:20.963Z,36.53
2023-04-07T19:00:53.055Z,35.38
2023-04-07T19:05:52.295Z,31.73
2023-04-07T19:08:20.417Z,33.75
2023-04-07T19:10:49.932Z,36.10
2023-04-07T19:13:18.978Z,36.97
2023-04-07T19:15:46.498Z,42.92
2023-04-07T19:18:14.295Z,54.55
2023-04-07T19:20:41.705Z,56.03
2023-04-07T19:23:09.085Z,51.75
2023-04-07T19:25:38.361Z,38.45
2023-04-07T19:28:06.157Z,35.58
2023-04-07T19:30:33.557Z,35.00
2023-04-07T19:33:01.626Z,36.22
2023-04-07T19:35:29.222Z,35.25
2023-04-07T19:37:56.622Z,31.15
2023-04-07T19:40:24.620Z,33.08
2023-04-07T19:42:53.881Z,33.35
2023-04-07T19:45:21.575Z,36.05
2023-04-07T19:47:49.567Z,36.03
2023-04-07T19:50:17.675Z,35.53
2023-04-07T19:52:45.788Z,34.58
2023-04-07T19:55:14.015Z,34.85
2023-04-07T19:57:41.576Z,35.08
2023-04-07T20:00:10.627Z,31.87
2023-04-07T20:04:20.172Z,33.45
2023-04-07T20:06:47.948Z,31.65
2023-04-07T20:09:15.359Z,36.72
2023-04-07T20:11:42.836Z,40.15
2023-04-07T20:14:10.631Z,39.03
2023-04-07T20:16:38.348Z,38.50
2023-04-07T20:19:05.942Z,36.75
2023-04-07T20:21:33.596Z,34.58
2023-04-07T20:24:01.096Z,35.20
2023-04-07T20:26:28.458Z,38.47
2023-04-07T20:28:56.299Z,31.00
2023-04-07T20:31:23.900Z,34.58
2023-04-07T20:33:51.366Z,35.50
2023-04-07T20:36:19.240Z,34.35
2023-04-07T20:38:48.022Z,31.37
2023-04-07T20:41:18.985Z,34.35
2023-04-07T20:43:46.732Z,36.15
2023-04-07T20:46:14.164Z,34.97
2023-04-07T20:48:42.017Z,34.45
2023-04-07T20:51:09.696Z,33.80
2023-04-07T20:53:37.365Z,36.78
2023-04-07T20:56:05.571Z,38.20
2023-04-07T20:58:33.268Z,35.80
2023-04-07T21:01:01.550Z,34.53
2023-04-07T21:03:30.890Z,36.58
2023-04-07T21:05:58.999Z,33.75
2023-04-07T21:08:26.408Z,35.97
2023-04-07T21:10:53.865Z,35.78
2023-04-07T21:13:22.471Z,37.67
2023-04-07T21:15:50.005Z,38.40
2023-04-07T21:18:19.182Z,42.83
2023-04-07T21:20:47.352Z,38.50
2023-04-07T21:23:14.799Z,39.72
2023-04-07T21:25:42.323Z,37.13
2023-04-07T21:28:09.990Z,37.10
2023-04-07T21:30:41.393Z,37.45
2023-04-07T21:33:08.869Z,40.35
2023-04-07T21:35:36.566Z,37.90
2023-04-07T21:38:04.292Z,37.15
2023-04-07T21:40:32.081Z,38.30
2023-04-07T21:42:59.841Z,36.53
2023-04-07T21:45:28.005Z,37.33
2023-04-07T21:47:55.385Z,35.92
2023-04-07T21:50:23.045Z,38.75
2023-04-07T21:52:51.620Z,33.13
2023-04-07T21:55:19.293Z,34.00
2023-04-07T21:57:47.329Z,32.40
2023-04-07T22:00:16.477Z,30.33
2023-04-07T22:02:45.550Z,31.12
2023-04-07T22:05:13.182Z,32.17
2023-04-07T22:07:40.747Z,28.38
2023-04-07T22:10:08.967Z,31.73
2023-04-07T22:12:36.578Z,29.95
2023-04-07T22:15:04.349Z,29.85
2023-04-07T22:17:32.093Z,29.35
2023-04-07T22:19:59.569Z,34.72
2023-04-07T22:22:26.944Z,31.62
2023-04-07T22:24:54.592Z,32.45
2023-04-07T22:27:22.272Z,36.20
2023-04-07T22:29:49.688Z,33.50
2023-04-07T22:32:17.384Z,33.67
2023-04-07T22:34:44.979Z,33.05
2023-04-07T22:37:12.978Z,33.90
2023-04-07T22:39:40.859Z,31.35
2023-04-07T22:42:08.290Z,31.05
2023-04-07T22:44:35.907Z,32.42
2023-04-07T22:47:04.057Z,27.85
2023-04-07T22:49:31.549Z,27.55
2023-04-07T22:51:58.987Z,28.45
2023-04-07T22:54:26.689Z,28.85
2023-04-07T22:56:54.206Z,30.15
2023-04-07T22:59:21.574Z,30.40
2023-04-07T23:01:49.331Z,34.05
2023-04-07T23:04:17.034Z,32.55
2023-04-07T23:06:44.420Z,32.10
2023-04-07T23:09:12.243Z,30.10
2023-04-07T23:11:39.752Z,31.62
2023-04-07T23:14:07.370Z,30.70
2023-04-07T23:16:35.353Z,32.67
2023-04-07T23:19:03.149Z,30.10
2023-04-07T23:21:31.967Z,32.00
2023-04-07T23:24:00.206Z,32.35
2023-04-07T23:26:27.740Z,27.23
2023-04-07T23:28:55.331Z,28.58
2023-04-07T23:31:23.129Z,28.80
2023-04-07T23:33:50.633Z,29.48
2023-04-07T23:36:18.040Z,27.60
2023-04-07T23:38:45.855Z,28.05
2023-04-07T23:41:13.345Z,27.67
2023-04-07T23:43:41.009Z,26.77
2023-04-07T23:46:08.784Z,28.83
2023-04-07T23:48:36.322Z,28.05
2023-04-07T23:51:03.754Z,28.87
2023-04-07T23:53:31.490Z,27.35
2023-04-07T23:55:58.872Z,28.10
2023-04-07T23:58:26.296Z,26.73
